createdAt,value
2018-12-17T00:01:41.795Z,100421.56
2018-12-17T00:06:44.832Z,100416.73
2018-12-17T00:11:47.359Z,100419.77
2018-12-17T00:16:49.853Z,100417.98
2018-12-17T00:21:52.240Z,100419.73
2018-12-17T00:26:54.722Z,100421.91
2018-12-17T00:31:57.143Z,100424.98
2018-12-17T00:36:59.820Z,100438.48
2018-12-17T00:42:02.640Z,100427.98
2018-12-17T00:47:05.069Z,100434.09
2018-12-17T00:52:07.481Z,100438.03
2018-12-17T00:57:09.990Z,100443.73
2018-12-17T01:02:12.383Z,100441.45
2018-12-17T01:07:14.780Z,100444.48
2018-12-17T01:12:17.339Z,100444.08
2018-12-17T01:17:19.978Z,100448.01
2018-12-17T01:22:22.467Z,100450.60
2018-12-17T01:27:24.949Z,100461.98
2018-12-17T01:32:27.426Z,100466.34
2018-12-17T01:37:29.836Z,100470.23
2018-12-17T01:42:32.486Z,100468.55
2018-12-17T01:47:34.972Z,100472.48
2018-12-17T01:52:37.374Z,100475.55
2018-12-17T01:57:39.902Z,100481.24
2018-12-17T02:02:42.360Z,100474.27
2018-12-17T02:07:44.814Z,100476.41
2018-12-17T02:12:47.326Z,100446.95
2018-12-17T02:17:49.756Z,100472.48
2018-12-17T02:22:52.167Z,100482.46
2018-12-17T02:27:54.574Z,100478.08
2018-12-17T02:32:57.071Z,100468.45
2018-12-17T02:37:59.439Z,100478.81
2018-12-17T02:43:01.967Z,100484.50
2018-12-17T02:48:04.374Z,100481.02
2018-12-17T02:53:06.816Z,100480.92
2018-12-17T02:58:09.233Z,100486.23
2018-12-17T03:03:11.721Z,100490.55
2018-12-17T03:08:14.146Z,100492.72
2018-12-17T03:13:16.576Z,100496.66
2018-12-17T03:18:18.963Z,100507.95
2018-12-17T03:23:21.394Z,100503.60
2018-12-17T03:28:23.787Z,100515.80
2018-12-17T03:33:26.158Z,100518.83
2018-12-17T03:38:28.691Z,100533.36
2018-12-17T03:43:31.094Z,100538.45
2018-12-17T03:48:33.603Z,100538.48
2018-12-17T03:53:36.006Z,100553.75
2018-12-17T03:58:38.333Z,100556.44
2018-12-17T04:03:41.926Z,100559.95
2018-12-17T04:08:44.414Z,100560.88
2018-12-17T04:13:52.203Z,100567.44
2018-12-17T04:18:54.722Z,100565.75
2018-12-17T04:23:57.414Z,100575.73
2018-12-17T04:29:06.632Z,100577.91
2018-12-17T04:34:04.413Z,100582.71
2018-12-17T04:39:07.037Z,100590.14
2018-12-17T04:44:09.932Z,100598.88
2018-12-17T04:49:12.293Z,100605.38
2018-12-17T04:54:14.715Z,100605.25
2018-12-17T04:59:17.110Z,100594.36
2018-12-17T05:04:19.773Z,100604.45
2018-12-17T05:09:22.190Z,100617.45
2018-12-17T05:14:24.574Z,100608.26
2018-12-17T05:19:26.988Z,100617.35
2018-12-17T05:24:29.416Z,100622.70
2018-12-17T05:29:31.694Z,100638.84
2018-12-17T05:34:34.129Z,100639.54
2018-12-17T05:39:36.614Z,100645.69
2018-12-17T05:44:39.103Z,100645.62
2018-12-17T05:49:41.466Z,100657.80
2018-12-17T05:54:43.851Z,100661.25
2018-12-17T05:59:46.223Z,100671.21
2018-12-17T06:04:48.576Z,100674.80
2018-12-17T06:09:51.494Z,100686.62
2018-12-17T06:14:53.843Z,100687.91
2018-12-17T06:19:56.579Z,100681.78
2018-12-17T06:24:59.206Z,100695.30
2018-12-17T06:30:01.544Z,100697.98
2018-12-17T06:35:04.532Z,100706.77
2018-12-17T06:40:10.336Z,100709.39
2018-12-17T06:45:11.626Z,100712.88
2018-12-17T06:50:14.087Z,100712.91
2018-12-17T06:55:17.210Z,100716.41
2018-12-17T07:00:19.918Z,100733.06
2018-12-17T07:05:22.310Z,100737.86
2018-12-17T07:10:24.922Z,100743.09
2018-12-17T07:15:27.348Z,100736.61
2018-12-17T07:20:29.761Z,100740.94
2018-12-17T07:25:32.226Z,100747.89
2018-12-17T07:30:34.563Z,100759.23
2018-12-17T07:35:36.956Z,100766.19
2018-12-17T07:40:39.240Z,100773.59
2018-12-17T07:45:42.469Z,100779.66
2018-12-17T07:50:44.747Z,100782.67
2018-12-17T07:55:47.793Z,100785.30
2018-12-17T08:00:50.128Z,100794.47
2018-12-17T08:05:52.462Z,100797.03
2018-12-17T08:10:56.160Z,100813.22
2018-12-17T08:15:58.421Z,100831.52
2018-12-17T08:21:00.762Z,100852.48
2018-12-17T08:26:03.352Z,100863.39
2018-12-17T08:31:05.878Z,100867.33
2018-12-17T08:36:08.951Z,100866.02
2018-12-17T08:41:11.303Z,100869.04
2018-12-17T08:46:13.609Z,100872.12
2018-12-17T08:51:15.997Z,100874.74
2018-12-17T08:56:18.338Z,100870.73
2018-12-17T09:01:20.817Z,100878.13
2018-12-17T09:06:23.530Z,100885.11
2018-12-17T09:11:26.155Z,100885.50
2018-12-17T09:16:28.474Z,100888.97
2018-12-17T09:21:30.821Z,100890.73
2018-12-17T09:26:33.200Z,100893.75
2018-12-17T09:31:35.595Z,100908.50
2018-12-17T09:36:38.167Z,100905.81
2018-12-17T09:41:40.754Z,100908.90
2018-12-17T09:46:43.579Z,100913.16
2018-12-17T09:51:46.101Z,100911.82
2018-12-17T09:56:48.535Z,100925.84
2018-12-17T10:01:50.948Z,100922.76
2018-12-17T10:06:53.217Z,100921.86
2018-12-17T10:11:55.763Z,100921.73
2018-12-17T10:16:58.175Z,100910.24
2018-12-17T10:22:00.752Z,100901.91
2018-12-17T10:27:03.239Z,100896.98
2018-12-17T10:32:05.689Z,100903.46
2018-12-17T10:37:08.422Z,100906.55
2018-12-17T10:42:10.864Z,100910.39
2018-12-17T10:47:13.448Z,100910.84
2018-12-17T10:52:15.968Z,100914.30
2018-12-17T10:57:18.342Z,100906.30
2018-12-17T11:02:24.063Z,100908.86
2018-12-17T11:07:26.434Z,100906.64
2018-12-17T11:12:28.790Z,100911.98
2018-12-17T11:17:31.383Z,100922.92
2018-12-17T11:22:35.127Z,100914.61
2018-12-17T11:27:37.500Z,100919.84
2018-12-17T11:32:43.345Z,100924.69
2018-12-17T11:37:45.713Z,100926.45
2018-12-17T11:42:48.053Z,100929.02
2018-12-17T11:47:50.440Z,100928.08
2018-12-17T11:52:53.349Z,100927.63
2018-12-17T11:58:08.383Z,100911.84
2018-12-17T12:03:10.902Z,100906.05
2018-12-17T12:08:13.190Z,100909.32
2018-12-17T12:13:15.578Z,100914.96
2018-12-17T12:18:18.193Z,100940.02
2018-12-17T12:23:20.557Z,100943.21
2018-12-17T12:28:22.936Z,100940.16
2018-12-17T12:33:25.365Z,100943.14
2018-12-17T12:38:27.826Z,100947.84
2018-12-17T12:43:30.254Z,100957.06
2018-12-17T12:48:32.597Z,100949.61
2018-12-17T12:53:35.190Z,100952.66
2018-12-17T12:58:38.442Z,100970.20
2018-12-17T13:03:41.825Z,100972.97
2018-12-17T13:08:44.355Z,100983.81
2018-12-17T13:13:46.999Z,100973.66
2018-12-17T13:18:49.442Z,100987.17
2018-12-17T13:23:51.897Z,100989.39
2018-12-17T13:28:54.238Z,100994.62
2018-12-17T13:33:56.589Z,100997.63
2018-12-17T13:38:59.261Z,100999.29
2018-12-17T13:44:02.394Z,100999.44
2018-12-17T13:49:05.400Z,101004.67
2018-12-17T13:54:07.853Z,101003.28
2018-12-17T13:59:10.132Z,101006.25
2018-12-17T14:04:12.571Z,101014.61
2018-12-17T14:09:16.417Z,101035.27
2018-12-17T14:14:18.740Z,101055.90
2018-12-17T14:19:26.063Z,101063.28
2018-12-17T14:24:29.414Z,101076.05
2018-12-17T14:29:31.791Z,101078.61
2018-12-17T14:34:34.149Z,101085.69
2018-12-17T14:39:36.544Z,101089.53
2018-12-17T14:44:39.021Z,101095.70
2018-12-17T14:49:41.479Z,101105.79
2018-12-17T14:54:44.404Z,101124.72
2018-12-17T14:59:47.027Z,101122.92
2018-12-17T15:04:49.460Z,101134.78
2018-12-17T15:09:51.839Z,101136.97
2018-12-17T15:14:54.878Z,101139.59
2018-12-17T15:19:57.650Z,101143.97
2018-12-17T15:24:59.988Z,101136.06
2018-12-17T15:30:02.603Z,101140.84
2018-12-17T15:35:05.515Z,101149.24
2018-12-17T15:40:08.150Z,101159.30
2018-12-17T15:45:10.641Z,101176.20
2018-12-17T15:50:12.994Z,101189.96
2018-12-17T15:55:15.364Z,101188.19
2018-12-17T16:00:18.786Z,101203.59
2018-12-17T16:05:21.337Z,101205.77
2018-12-17T16:10:23.853Z,101204.81
2018-12-17T16:15:26.242Z,101210.89
2018-12-17T16:20:28.704Z,101214.45
2018-12-17T16:25:32.096Z,101207.83
2018-12-17T16:30:34.514Z,101214.84
2018-12-17T16:35:37.997Z,101228.89
2018-12-17T16:40:40.806Z,101235.00
2018-12-17T16:45:43.623Z,101238.08
2018-12-17T16:50:45.972Z,101240.69
2018-12-17T16:55:48.372Z,101249.88
2018-12-17T17:00:50.667Z,101248.59
2018-12-17T17:05:53.054Z,101258.31
2018-12-17T17:10:55.469Z,101267.47
2018-12-17T17:15:58.224Z,101275.77
2018-12-17T17:21:00.817Z,101281.59
2018-12-17T17:26:03.963Z,101287.31
2018-12-17T17:31:06.645Z,101300.55
2018-12-17T17:36:09.123Z,101302.29
2018-12-17T17:41:11.585Z,101309.69
2018-12-17T17:46:14.206Z,101308.88
2018-12-17T17:51:16.647Z,101311.45
2018-12-17T17:56:19.041Z,101317.15
2018-12-17T18:01:21.515Z,101307.92
2018-12-17T18:06:24.043Z,101312.36
2018-12-17T18:11:26.489Z,101318.95
2018-12-17T18:16:28.971Z,101327.72
2018-12-17T18:21:31.682Z,101329.08
2018-12-17T18:26:34.203Z,101332.55
2018-12-17T18:31:37.110Z,101330.28
2018-12-17T18:36:39.691Z,101345.22
2018-12-17T18:41:42.241Z,101343.96
2018-12-17T18:46:44.661Z,101349.18
2018-12-17T18:51:47.059Z,101358.74
2018-12-17T18:56:49.788Z,101364.73
2018-12-17T19:01:52.238Z,101370.94
2018-12-17T19:06:54.762Z,101368.39
2018-12-17T19:11:57.417Z,101384.69
2018-12-17T19:16:59.762Z,101396.98
2018-12-17T19:22:02.377Z,101396.03
2018-12-17T19:27:04.831Z,101406.94
2018-12-17T19:32:07.322Z,101409.88
2018-12-17T19:37:09.964Z,101415.01
2018-12-17T19:42:13.326Z,101420.44
2018-12-17T19:47:15.855Z,101408.62
2018-12-17T19:52:18.480Z,101414.80
2018-12-17T19:57:21.111Z,101432.84
2018-12-17T20:02:24.495Z,101425.46
2018-12-17T20:07:29.061Z,101433.37
2018-12-17T20:12:31.663Z,101439.05
2018-12-17T20:17:34.097Z,101443.45
2018-12-17T20:22:36.505Z,101449.70
2018-12-17T20:27:39.139Z,101426.63
2018-12-17T20:32:41.721Z,101455.89
2018-12-17T20:37:44.167Z,101474.41
2018-12-17T20:42:46.676Z,101465.20
2018-12-17T20:47:49.114Z,101468.28
2018-12-17T20:52:51.502Z,101475.83
2018-12-17T20:57:53.925Z,101482.89
2018-12-17T21:03:00.198Z,101484.21
2018-12-17T21:08:01.431Z,101486.30
2018-12-17T21:13:03.882Z,101484.21
2018-12-17T21:18:06.367Z,101479.75
2018-12-17T21:23:09.555Z,101481.09
2018-12-17T21:28:12.081Z,101483.31
2018-12-17T21:33:14.585Z,101489.05
2018-12-17T21:38:17.038Z,101492.16
2018-12-17T21:43:19.658Z,101497.43
2018-12-17T21:48:22.622Z,101508.09
2018-12-17T21:53:25.013Z,101508.47
2018-12-17T21:58:28.387Z,101517.28
2018-12-17T22:03:30.996Z,101517.69
2018-12-17T22:08:33.470Z,101531.31
2018-12-17T22:13:36.027Z,101534.83
2018-12-17T22:18:38.519Z,101524.39
2018-12-17T22:23:40.866Z,101531.00
2018-12-17T22:28:43.357Z,101538.48
2018-12-17T22:33:45.874Z,101538.08
2018-12-17T22:38:48.325Z,101542.48
2018-12-17T22:43:50.698Z,101549.08
2018-12-17T22:48:53.134Z,101556.52
2018-12-17T22:53:55.522Z,101560.05
2018-12-17T22:58:58.001Z,101562.63
2018-12-17T23:04:00.401Z,101560.84
2018-12-17T23:09:04.960Z,101557.33
2018-12-17T23:14:18.639Z,101559.06
2018-12-17T23:19:19.983Z,101561.25
2018-12-17T23:24:22.513Z,101565.59
2018-12-17T23:29:25.042Z,101560.30
2018-12-17T23:34:27.777Z,101568.61
2018-12-17T23:39:30.227Z,101563.34
2018-12-17T23:44:36.209Z,101560.29
2018-12-17T23:49:38.699Z,101553.27
2018-12-17T23:54:41.663Z,101547.99
2018-12-17T23:59:44.248Z,101549.72
